This is the latest recevied weather packets stored in our database for station/object SP8PUB-10. If no packets are shown the sender has not sent any weather packets the latest 10 day(s).
| Time | Temp. | Humidity | Pressure | Rain* | Wind** | Luminosity | Snow |
|---|---|---|---|---|---|---|---|
| 1777421944 | -0.56° C | 80% | 1024.4 hPa | - | - | - | - |
| 1777421044 | 0° C | 79% | 1024.4 hPa | - | - | - | - |
| 1777413842 | 1.67° C | 68% | 1024.5 hPa | - | - | - | - |
| 1777409347 | 3.33° C | 61% | 1024.2 hPa | - | - | - | - |
| 1777408447 | 2.78° C | 62% | 1024.2 hPa | - | - | - | - |
| 1777404846 | 3.89° C | 58% | 1023.8 hPa | - | - | - | - |
| 1777403946 | 5° C | 56% | 1024 hPa | - | - | - | - |
| 1777403046 | 5.56° C | 53% | 1023.9 hPa | - | - | - | - |
| 1777401246 | 6.67° C | 49% | 1023.8 hPa | - | - | - | - |
| 1777400346 | 7.22° C | 47% | 1023.6 hPa | - | - | - | - |
| 1777397645 | 8.33° C | 45% | 1023.1 hPa | - | - | - | - |
| 1777396745 | 8.89° C | 44% | 1023.1 hPa | - | - | - | - |
| 1777394945 | 10° C | 41% | 1023 hPa | - | - | - | - |
| 1777393145 | 10.56° C | 40% | 1022.9 hPa | - | - | - | - |
| 1777389544 | 11.11° C | 39% | 1023 hPa | - | - | - | - |
| 1777386844 | 11.67° C | 39% | 1023.1 hPa | - | - | - | - |
| 1777385944 | 11.11° C | 39% | 1023.3 hPa | - | - | - | - |
| 1777385044 | 11.67° C | 38% | 1023.2 hPa | - | - | - | - |
| 1777378743 | 11.67° C | 35% | 1023.6 hPa | - | - | - | - |
| 1777377843 | 11.11° C | 36% | 1023.6 hPa | - | - | - | - |
| 1777376943 | 11.67° C | 38% | 1023.7 hPa | - | - | - | - |
| 1777376043 | 11.11° C | 37% | 1023.4 hPa | - | - | - | - |
| 1777372442 | 10.56° C | 36% | 1024 hPa | - | - | - | - |
| 1777371542 | 10.56° C | 37% | 1023.9 hPa | - | - | - | - |
| 1777370642 | 10.56° C | 38% | 1024.2 hPa | - | - | - | - |
* Rain since midnight (hover to see other rain measurements)
** Current wind speed in m/s (hover to see current wind gust speed)